< < Back
Terminal Aerodrome Forecast


Current Version              Previous Versions:   1  2  3  4  5  6  7  8  9  

Terminal Aerodrome Forecast

209
FTUS42 KFFC 012203 AAA
TAFMCN
TAF AMD
KMCN 012203Z 0122/0218 05004KT 5SM BR OVC006
      TEMPO 0122/0202 3SM -DZ BR OVC004
     FM020200 00000KT 2SM -DZ OVC003
     FM020700 VRB03KT 4SM -RA OVC006
     FM020900 VRB03KT 1SM -DZ OVC004
     FM021500 26005KT 4SM -DZ OVC008=

Latest METAR

865
SAUS80 KWBC 021100
MTRMCN
METAR KMCN 021053Z AUTO 00000KT 1/4SM FG VV002 07/07 A3030 RMK AO2
SLP259 T00720072 TSNO


USA.gov is the U.S. government's official web portal to all federal, state and local government web resources and services.